Terminal Aerodrome Forecast
Issued by NWS Upton, NY

Current Version | Previous Version | Text Only | Print | Product List | Glossary On
Versions: 1 2 3 4 5 6 7 8 9 10 11 12 13 14 15 16 17 18 19 20 21 22 23 24 25 26 27 28 29 30 31 32 33 34 35 36 37 38 39 40 41 42 43 44 45 46 47 48 49 50
849
FTUS41 KOKX 131350 AAP
TAFLGA
TAF AMD
KLGA 131350Z 1314/1418 22006KT P6SM FEW080
     FM131500 21008KT P6SM BKN080
     FM131900 17010KT P6SM BKN050
     FM140100 18007KT P6SM BKN050
     FM140900 17005KT P6SM -SHRA BKN030 BKN050
     FM141700 16008KT 5SM -SHRA BKN015 OVC040=

USA.gov is the U.S. government's official web portal to all federal, state and local government web resources and services.